Time;durP1;ratioP1;P1;durP2;ratioP2;P2;SDS_P1;SDS_P2;PMS_P1;PMS_P2;Temp;Humidity;BMP_temperature;BMP_pressure;BME280_temperature;BME280_humidity;BME280_pressure;Samples;Min_cycle;Max_cycle;Signal;HPM_P1;HPM_P2
2022/07/17 00:00:59;;;;;;;;;;;;;;;;;;5112910;28;20111;-78
2022/07/17 00:03:25;;;;;;;;;;;;;;;;;;5113043;28;19923;-77
2022/07/17 00:05:53;;;;;;;;;;;;;;;;;;5113082;28;19923;-78
2022/07/17 00:08:20;;;;;;;;;;;;;;;;;;5112726;28;20014;-78
2022/07/17 00:10:46;;;;;;;;;;;;;;;;;;5112576;28;19924;-77
2022/07/17 00:13:13;;;;;;;;;;;;;;;;;;5112799;28;19976;-77
2022/07/17 00:15:39;;;;;;;;;;;;;;;;;;5112853;28;19994;-77
2022/07/17 00:18:07;;;;;;;;;;;;;;;;;;5113026;28;19962;-77
2022/07/17 00:20:34;;;;;;;;;;;;;;;;;;5112596;28;19924;-78
2022/07/17 00:23:01;;;;;;;;;;;;;;;;;;5112711;28;20019;-77
2022/07/17 00:25:28;;;;;;;;;;;;;;;;;;5112816;28;20573;-77
2022/07/17 00:27:55;;;;;;;;;;;;;;;;;;5112387;28;20027;-77
2022/07/17 00:30:21;;;;;;;;;;;;;;;;;;5112699;28;20018;-77
2022/07/17 00:32:48;;;;;;;;;;;;;;;;;;5112783;28;20014;-78
2022/07/17 00:35:15;;;;;;;;;;;;;;;;;;5112787;28;19950;-78
2022/07/17 00:37:41;;;;;;;;;;;;;;;;;;5112287;28;19924;-77
2022/07/17 00:40:11;;;;;;;;;;;;;;;;;;5112564;28;19924;-77
2022/07/17 00:42:39;;;;;;;;;;;;;;;;;;5112352;28;20448;-77
2022/07/17 00:45:06;;;;;;;;;;;;;;;;;;5112473;28;19924;-78
2022/07/17 00:47:33;;;;;;;;;;;;;;;;;;5112449;28;19924;-78
2022/07/17 00:49:59;;;;;;;;;;;;;;;;;;5112274;28;19966;-78
2022/07/17 00:52:25;;;;;;;;;;;;;;;;;;5112455;28;19978;-78
2022/07/17 00:54:52;;;;;;;;;;;;;;;;;;5116568;28;19959;-77
2022/07/17 00:57:21;;;;;;;;;;;;;;;;;;5116408;28;19930;-77
2022/07/17 00:59:47;;;;;;;;;;;;;;;;;;5116230;28;20402;-77
2022/07/17 01:02:14;;;;;;;;;;;;;;;;;;5115771;28;20289;-77
2022/07/17 01:04:41;;;;;;;;;;;;;;;;;;5126242;22;19939;-77
2022/07/17 01:07:07;;;;;;;;;;;;;;;;;;5115155;28;20377;-76
2022/07/17 01:12:40;;;;;;;;;;;;;;;;;;5102769;28;19923;-76
2022/07/17 01:15:07;;;;;;;;;;;;;;;;;;5094926;28;20366;-76
2022/07/17 01:17:33;;;;;;;;;;;;;;;;;;5094860;28;20382;-76
2022/07/17 01:20:05;;;;;;;;;;;;;;;;;;5094758;28;20388;-76
2022/07/17 01:22:33;;;;;;;;;;;;;;;;;;5094801;28;19935;-75
2022/07/17 01:24:59;;;;;;;;;;;;;;;;;;5094862;28;20417;-75
2022/07/17 01:27:26;;;;;;;;;;;;;;;;;;5094427;28;20014;-76
2022/07/17 01:29:54;;;;;;;;;;;;;;;;;;5094699;28;19928;-76
2022/07/17 01:32:31;;;;;;;;;;;;;;;;;;5095073;28;19924;-76
2022/07/17 01:34:57;;;;;;;;;;;;;;;;;;5094852;28;19931;-76
2022/07/17 01:37:24;;;;;;;;;;;;;;;;;;5094832;28;19924;-76
2022/07/17 01:39:54;;;;;;;;;;;;;;;;;;5094969;28;19931;-76
2022/07/17 01:42:21;;;;;;;;;;;;;;;;;;5094891;28;19924;-76
2022/07/17 01:44:47;;;;;;;;;;;;;;;;;;5096627;28;19931;-76
2022/07/17 01:47:14;;;;;;;;;;;;;;;;;;5116983;28;19932;-76
2022/07/17 01:49:43;;;;;;;;;;;;;;;;;;5112321;28;19928;-76
2022/07/17 01:52:10;;;;;;;;;;;;;;;;;;5109713;28;19924;-77
2022/07/17 01:54:36;;;;;;;;;;;;;;;;;;5107799;28;19964;-76
2022/07/17 01:57:04;;;;;;;;;;;;;;;;;;5114984;28;19947;-77
2022/07/17 01:59:30;;;;;;;;;;;;;;;;;;5110437;28;20019;-76
2022/07/17 02:01:57;;;;;;;;;;;;;;;;;;5122514;28;19992;-76
2022/07/17 02:04:23;;;;;;;;;;;;;;;;;;5118435;28;19923;-75
2022/07/17 02:06:50;;;;;;;;;;;;;;;;;;5116474;28;19967;-76
2022/07/17 02:09:16;;;;;;;;;;;;;;;;;;5115164;28;19924;-76
2022/07/17 02:11:43;;;;;;;;;;;;;;;;;;5114877;28;19955;-76
2022/07/17 02:14:10;;;;;;;;;;;;;;;;;;5114408;28;20390;-76
2022/07/17 02:16:37;;;;;;;;;;;;;;;;;;5114577;28;19963;-76
2022/07/17 02:19:03;;;;;;;;;;;;;;;;;;5114520;28;19930;-76
2022/07/17 02:21:30;;;;;;;;;;;;;;;;;;5114409;28;19923;-76
2022/07/17 02:23:56;;;;;;;;;;;;;;;;;;5114124;28;19932;-76
2022/07/17 02:26:23;;;;;;;;;;;;;;;;;;5113766;28;19923;-76
2022/07/17 02:28:49;;;;;;;;;;;;;;;;;;5113997;28;19924;-76
2022/07/17 02:31:17;;;;;;;;;;;;;;;;;;5114255;28;20010;-76
2022/07/17 02:33:43;;;;;;;;;;;;;;;;;;5114353;28;19971;-77
2022/07/17 02:36:10;;;;;;;;;;;;;;;;;;5114250;28;20018;-77
2022/07/17 02:38:36;;;;;;;;;;;;;;;;;;5114204;28;20014;-76
2022/07/17 02:41:03;;;;;;;;;;;;;;;;;;5113915;28;19923;-76
2022/07/17 02:43:29;;;;;;;;;;;;;;;;;;5114007;28;19923;-77
2022/07/17 02:45:55;;;;;;;;;;;;;;;;;;5113906;28;19928;-77
2022/07/17 02:48:23;;;;;;;;;;;;;;;;;;5114021;28;20026;-77
2022/07/17 02:50:50;;;;;;;;;;;;;;;;;;5113859;28;19926;-77
2022/07/17 02:53:16;;;;;;;;;;;;;;;;;;5113712;28;20008;-76
2022/07/17 02:55:43;;;;;;;;;;;;;;;;;;5113516;28;19930;-76
2022/07/17 02:58:09;;;;;;;;;;;;;;;;;;5113483;28;19936;-77
2022/07/17 03:00:36;;;;;;;;;;;;;;;;;;5113716;28;19977;-77
2022/07/17 03:03:02;;;;;;;;;;;;;;;;;;5113672;28;19931;-76
2022/07/17 03:05:30;;;;;;;;;;;;;;;;;;5113510;28;20294;-76
2022/07/17 03:07:56;;;;;;;;;;;;;;;;;;5113177;28;19924;-77
2022/07/17 03:10:23;;;;;;;;;;;;;;;;;;5113525;28;19977;-76
2022/07/17 03:12:50;;;;;;;;;;;;;;;;;;5113683;28;19924;-77
2022/07/17 03:15:17;;;;;;;;;;;;;;;;;;5113284;28;20014;-77
2022/07/17 03:17:43;;;;;;;;;;;;;;;;;;5113148;28;20010;-76
2022/07/17 03:20:10;;;;;;;;;;;;;;;;;;5113209;28;19924;-77
2022/07/17 03:22:38;;;;;;;;;;;;;;;;;;5113144;28;20015;-76
2022/07/17 03:25:05;;;;;;;;;;;;;;;;;;5113024;28;20390;-76
2022/07/17 03:27:31;;;;;;;;;;;;;;;;;;5113007;28;19924;-76
2022/07/17 03:29:58;;;;;;;;;;;;;;;;;;5113102;28;19924;-76
2022/07/17 03:32:24;;;;;;;;;;;;;;;;;;5113072;28;19970;-76
2022/07/17 03:34:51;;;;;;;;;;;;;;;;;;5113199;28;19924;-76
2022/07/17 03:37:17;;;;;;;;;;;;;;;;;;5112776;28;19923;-77
2022/07/17 03:39:45;;;;;;;;;;;;;;;;;;5112691;28;19966;-77
2022/07/17 03:42:11;;;;;;;;;;;;;;;;;;5113041;28;19924;-77
2022/07/17 03:44:38;;;;;;;;;;;;;;;;;;5112620;28;19932;-77
2022/07/17 03:47:04;;;;;;;;;;;;;;;;;;5112704;28;20007;-76
2022/07/17 03:49:31;;;;;;;;;;;;;;;;;;5112525;28;20018;-77
2022/07/17 03:51:57;;;;;;;;;;;;;;;;;;5112947;28;19930;-76
2022/07/17 03:54:23;;;;;;;;;;;;;;;;;;5112611;28;19924;-77
2022/07/17 03:56:51;;;;;;;;;;;;;;;;;;5112409;28;19924;-77
2022/07/17 03:59:18;;;;;;;;;;;;;;;;;;5121620;28;19974;-77
2022/07/17 04:01:44;;;;;;;;;;;;;;;;;;5114588;28;19974;-77
2022/07/17 04:04:11;;;;;;;;;;;;;;;;;;5110005;28;19959;-77
2022/07/17 04:06:37;;;;;;;;;;;;;;;;;;5099791;28;19924;-77
2022/07/17 04:09:04;;;;;;;;;;;;;;;;;;5093038;28;19924;-77
2022/07/17 04:11:31;;;;;;;;;;;;;;;;;;5092844;28;19924;-77
2022/07/17 04:13:58;;;;;;;;;;;;;;;;;;5092583;28;19930;-77
2022/07/17 04:16:25;;;;;;;;;;;;;;;;;;5091886;28;19924;-76
2022/07/17 04:18:51;;;;;;;;;;;;;;;;;;5092165;28;19974;-77
2022/07/17 04:21:18;;;;;;;;;;;;;;;;;;5091871;28;19930;-77
2022/07/17 04:23:44;;;;;;;;;;;;;;;;;;5091961;28;19924;-77
2022/07/17 04:26:11;;;;;;;;;;;;;;;;;;5091784;28;19924;-77
2022/07/17 04:28:37;;;;;;;;;;;;;;;;;;5094681;28;20466;-76
2022/07/17 04:31:05;;;;;;;;;;;;;;;;;;5096293;28;19925;-76
2022/07/17 04:33:31;;;;;;;;;;;;;;;;;;5096348;28;20532;-77
2022/07/17 04:35:58;;;;;;;;;;;;;;;;;;5095704;28;19982;-77
2022/07/17 04:38:24;;;;;;;;;;;;;;;;;;5096674;28;19924;-77
2022/07/17 04:40:51;;;;;;;;;;;;;;;;;;5095921;28;19924;-75
2022/07/17 04:43:17;;;;;;;;;;;;;;;;;;5096009;28;20007;-77
2022/07/17 04:45:43;;;;;;;;;;;;;;;;;;5096108;28;20011;-77
2022/07/17 04:48:11;;;;;;;;;;;;;;;;;;5095398;28;20325;-76
2022/07/17 04:50:38;;;;;;;;;;;;;;;;;;5095824;28;20349;-76
2022/07/17 04:53:04;;;;;;;;;;;;;;;;;;5095683;28;19931;-77
2022/07/17 04:55:30;;;;;;;;;;;;;;;;;;5095977;28;19936;-77
2022/07/17 04:57:57;;;;;;;;;;;;;;;;;;5095464;28;19934;-77
2022/07/17 05:00:23;;;;;;;;;;;;;;;;;;5105395;28;19924;-77
2022/07/17 05:02:50;;;;;;;;;;;;;;;;;;5115937;28;19930;-76
2022/07/17 05:05:17;;;;;;;;;;;;;;;;;;5117822;28;19924;-76
2022/07/17 05:07:44;;;;;;;;;;;;;;;;;;5115705;28;19930;-77
2022/07/17 05:10:10;;;;;;;;;;;;;;;;;;5115555;28;20378;-77
2022/07/17 05:12:37;;;;;;;;;;;;;;;;;;5116021;28;20019;-77
2022/07/17 05:15:04;;;;;;;;;;;;;;;;;;5115666;28;19927;-77
2022/07/17 05:17:30;;;;;;;;;;;;;;;;;;5115564;28;19924;-76
2022/07/17 05:19:56;;;;;;;;;;;;;;;;;;5115577;28;20022;-77
2022/07/17 05:22:24;;;;;;;;;;;;;;;;;;5115820;28;19946;-75
2022/07/17 05:24:51;;;;;;;;;;;;;;;;;;5115475;28;19928;-76
2022/07/17 05:27:17;;;;;;;;;;;;;;;;;;5115110;28;20014;-76
2022/07/17 05:29:43;;;;;;;;;;;;;;;;;;5115505;28;19970;-76
2022/07/17 05:32:10;;;;;;;;;;;;;;;;;;5115474;28;19927;-76
2022/07/17 05:34:36;;;;;;;;;;;;;;;;;;5115248;28;20010;-77
2022/07/17 05:37:03;;;;;;;;;;;;;;;;;;5115064;28;20006;-77
2022/07/17 05:39:30;;;;;;;;;;;;;;;;;;5115126;28;19930;-76
2022/07/17 05:41:57;;;;;;;;;;;;;;;;;;5115187;28;19928;-76
2022/07/17 05:44:23;;;;;;;;;;;;;;;;;;5114917;28;20022;-76
2022/07/17 05:46:50;;;;;;;;;;;;;;;;;;5114619;28;20366;-76
2022/07/17 05:49:16;;;;;;;;;;;;;;;;;;5115171;28;20616;-76
2022/07/17 05:51:42;;;;;;;;;;;;;;;;;;5115150;28;19923;-77
2022/07/17 05:54:09;;;;;;;;;;;;;;;;;;5115053;28;20322;-77
2022/07/17 05:56:37;;;;;;;;;;;;;;;;;;5114767;28;20010;-77
2022/07/17 05:59:03;;;;;;;;;;;;;;;;;;5115670;28;19930;-77
2022/07/17 06:01:30;;;;;;;;;;;;;;;;;;5095452;28;19924;-76
2022/07/17 06:03:56;;;;;;;;;;;;;;;;;;5095103;28;19930;-77
2022/07/17 06:06:22;;;;;;;;;;;;;;;;;;5094020;28;20512;-77
2022/07/17 06:08:49;;;;;;;;;;;;;;;;;;5094640;28;19924;-77
2022/07/17 06:11:15;;;;;;;;;;;;;;;;;;5094440;28;19971;-77
2022/07/17 06:13:43;;;;;;;;;;;;;;;;;;5093895;28;20110;-76
2022/07/17 06:16:10;;;;;;;;;;;;;;;;;;5093612;28;19924;-76
2022/07/17 06:18:36;;;;;;;;;;;;;;;;;;5094433;28;19924;-76
2022/07/17 06:21:03;;;;;;;;;;;;;;;;;;5093892;28;20057;-76
2022/07/17 06:23:30;;;;;;;;;;;;;;;;;;5094251;28;19924;-76
2022/07/17 06:25:56;;;;;;;;;;;;;;;;;;5093569;28;19936;-77
2022/07/17 06:28:23;;;;;;;;;;;;;;;;;;5094088;28;19924;-77
2022/07/17 06:30:51;;;;;;;;;;;;;;;;;;5093872;28;19931;-77
2022/07/17 06:33:17;;;;;;;;;;;;;;;;;;5093704;28;20375;-76
2022/07/17 06:35:44;;;;;;;;;;;;;;;;;;5093499;28;20500;-77
2022/07/17 06:38:10;;;;;;;;;;;;;;;;;;5093456;28;19924;-77
2022/07/17 06:40:37;;;;;;;;;;;;;;;;;;5093551;28;19978;-76
2022/07/17 06:43:05;;;;;;;;;;;;;;;;;;5093603;28;19928;-77
2022/07/17 06:45:32;;;;;;;;;;;;;;;;;;5093480;28;20404;-77
2022/07/17 06:48:00;;;;;;;;;;;;;;;;;;5093398;28;19963;-77
2022/07/17 06:50:26;;;;;;;;;;;;;;;;;;5093096;28;19978;-76
2022/07/17 06:52:53;;;;;;;;;;;;;;;;;;5093817;28;20103;-77
2022/07/17 06:55:19;;;;;;;;;;;;;;;;;;5093337;28;19931;-77
2022/07/17 06:57:46;;;;;;;;;;;;;;;;;;5093118;28;19932;-77
2022/07/17 07:00:13;;;;;;;;;;;;;;;;;;5101970;28;20002;-76
2022/07/17 07:02:39;;;;;;;;;;;;;;;;;;5113795;28;19927;-76
2022/07/17 07:05:08;;;;;;;;;;;;;;;;;;5114982;28;19990;-76
2022/07/17 07:07:34;;;;;;;;;;;;;;;;;;5130781;22;19942;-78
2022/07/17 07:10:01;;;;;;;;;;;;;;;;;;5113922;28;20302;-77
2022/07/17 07:12:27;;;;;;;;;;;;;;;;;;5114703;28;20010;-77
2022/07/17 07:14:54;;;;;;;;;;;;;;;;;;5121863;28;19955;-74
2022/07/17 07:17:20;;;;;;;;;;;;;;;;;;5124474;28;19953;-76
2022/07/17 07:19:47;;;;;;;;;;;;;;;;;;5105768;28;19933;-76
2022/07/17 07:22:15;;;;;;;;;;;;;;;;;;5098374;28;19962;-77
2022/07/17 07:24:42;;;;;;;;;;;;;;;;;;5102808;28;19963;-78
2022/07/17 07:27:08;;;;;;;;;;;;;;;;;;5098968;28;19924;-76
2022/07/17 07:29:35;;;;;;;;;;;;;;;;;;5101078;28;19959;-77
2022/07/17 07:32:01;;;;;;;;;;;;;;;;;;5097537;28;19931;-76
2022/07/17 07:34:28;;;;;;;;;;;;;;;;;;5095405;28;19967;-77
2022/07/17 07:36:54;;;;;;;;;;;;;;;;;;5095765;28;19978;-77
2022/07/17 07:39:22;;;;;;;;;;;;;;;;;;5104531;28;19928;-75
2022/07/17 07:41:49;;;;;;;;;;;;;;;;;;5106396;28;19948;-77
2022/07/17 07:44:15;;;;;;;;;;;;;;;;;;5106842;28;19931;-77
2022/07/17 07:46:42;;;;;;;;;;;;;;;;;;5104207;28;19931;-77
2022/07/17 07:49:08;;;;;;;;;;;;;;;;;;5100470;28;20267;-78
2022/07/17 07:51:35;;;;;;;;;;;;;;;;;;5106454;28;20029;-77
2022/07/17 07:54:01;;;;;;;;;;;;;;;;;;5106820;28;19932;-77
2022/07/17 07:56:29;;;;;;;;;;;;;;;;;;5110816;28;19947;-77
2022/07/17 07:58:58;;;;;;;;;;;;;;;;;;5109951;28;19925;-77
2022/07/17 08:01:25;;;;;;;;;;;;;;;;;;5107161;28;19924;-78
2022/07/17 08:03:51;;;;;;;;;;;;;;;;;;5111023;28;19932;-77
2022/07/17 08:06:18;;;;;;;;;;;;;;;;;;5108252;28;20007;-76
2022/07/17 08:08:44;;;;;;;;;;;;;;;;;;5111047;28;19973;-79
2022/07/17 08:11:11;;;;;;;;;;;;;;;;;;5109941;28;19936;-78
2022/07/17 08:13:40;;;;;;;;;;;;;;;;;;5105932;28;19946;-78
2022/07/17 08:16:07;;;;;;;;;;;;;;;;;;5107147;28;20018;-78
2022/07/17 08:18:34;;;;;;;;;;;;;;;;;;5110856;28;19932;-78
2022/07/17 08:21:01;;;;;;;;;;;;;;;;;;5113584;28;19928;-78
2022/07/17 08:23:27;;;;;;;;;;;;;;;;;;5106447;28;19928;-77
2022/07/17 08:25:54;;;;;;;;;;;;;;;;;;5101574;28;19967;-78
2022/07/17 08:28:20;;;;;;;;;;;;;;;;;;5101786;28;20011;-77
2022/07/17 08:30:48;;;;;;;;;;;;;;;;;;5109066;28;20249;-78
2022/07/17 08:33:16;;;;;;;;;;;;;;;;;;5112159;28;19979;-78
2022/07/17 08:35:42;;;;;;;;;;;;;;;;;;5113392;28;19935;-75
2022/07/17 08:38:09;;;;;;;;;;;;;;;;;;5121420;28;19976;-78
2022/07/17 08:40:36;;;;;;;;;;;;;;;;;;5121280;28;19923;-78
2022/07/17 08:43:04;;;;;;;;;;;;;;;;;;5124113;28;19967;-79
2022/07/17 08:45:31;;;;;;;;;;;;;;;;;;5119699;28;19991;-77
2022/07/17 08:48:00;;;;;;;;;;;;;;;;;;5120005;28;19924;-76
2022/07/17 08:50:29;;;;;;;;;;;;;;;;;;5128724;28;19963;-75
2022/07/17 08:52:55;;;;;;;;;;;;;;;;;;5128318;28;19923;-77
2022/07/17 08:55:22;;;;;;;;;;;;;;;;;;5124618;28;19963;-77
2022/07/17 08:57:49;;;;;;;;;;;;;;;;;;5127301;28;19923;-76
2022/07/17 09:00:18;;;;;;;;;;;;;;;;;;5130133;28;19923;-77
2022/07/17 09:02:55;;;;;;;;;;;;;;;;;;5119093;28;19973;-76
2022/07/17 09:05:23;;;;;;;;;;;;;;;;;;5108664;28;20020;-77
2022/07/17 09:07:50;;;;;;;;;;;;;;;;;;5110360;28;19931;-76
2022/07/17 09:10:17;;;;;;;;;;;;;;;;;;5107786;28;19924;-76
2022/07/17 09:12:43;;;;;;;;;;;;;;;;;;5112522;28;20048;-76
2022/07/17 09:15:17;;;;;;;;;;;;;;;;;;5107613;28;19928;-78
2022/07/17 09:17:48;;;;;;;;;;;;;;;;;;5126785;28;20023;-77
2022/07/17 09:20:15;;;;;;;;;;;;;;;;;;5129981;28;19924;-79
2022/07/17 09:22:43;;;;;;;;;;;;;;;;;;5131031;28;19924;-77
2022/07/17 09:25:09;;;;;;;;;;;;;;;;;;5129787;28;19949;-78
2022/07/17 09:27:36;;;;;;;;;;;;;;;;;;5133066;28;19973;-76
2022/07/17 09:30:05;;;;;;;;;;;;;;;;;;5133022;28;20055;-77
2022/07/17 09:32:32;;;;;;;;;;;;;;;;;;5132297;28;19939;-77
2022/07/17 09:34:59;;;;;;;;;;;;;;;;;;5134133;28;19924;-77
2022/07/17 09:37:27;;;;;;;;;;;;;;;;;;5133876;28;19955;-77
2022/07/17 09:39:54;;;;;;;;;;;;;;;;;;5132619;28;20385;-79
2022/07/17 09:42:25;;;;;;;;;;;;;;;;;;5129617;28;19924;-77
2022/07/17 09:44:56;;;;;;;;;;;;;;;;;;5130109;28;19928;-78
2022/07/17 09:47:23;;;;;;;;;;;;;;;;;;5123633;28;19972;-78
2022/07/17 09:49:49;;;;;;;;;;;;;;;;;;5119709;28;19945;-77
2022/07/17 09:52:16;;;;;;;;;;;;;;;;;;5122842;28;20065;-78
2022/07/17 09:54:44;;;;;;;;;;;;;;;;;;5115465;28;19927;-77
2022/07/17 09:57:12;;;;;;;;;;;;;;;;;;5129494;28;19924;-77
2022/07/17 09:59:39;;;;;;;;;;;;;;;;;;5122122;28;19924;-78
2022/07/17 10:02:06;;;;;;;;;;;;;;;;;;5119412;28;19945;-76
2022/07/17 10:04:34;;;;;;;;;;;;;;;;;;5122776;28;19927;-78
2022/07/17 10:07:00;;;;;;;;;;;;;;;;;;5117378;28;19923;-77
2022/07/17 10:09:26;;;;;;;;;;;;;;;;;;5114802;28;19971;-78
2022/07/17 10:11:53;;;;;;;;;;;;;;;;;;5119561;28;19963;-76
2022/07/17 10:14:21;;;;;;;;;;;;;;;;;;5123064;28;19924;-78
2022/07/17 10:16:48;;;;;;;;;;;;;;;;;;5113982;28;19974;-78
2022/07/17 10:19:18;;;;;;;;;;;;;;;;;;5117910;28;19924;-78
2022/07/17 10:21:56;;;;;;;;;;;;;;;;;;5123669;28;20630;-76
2022/07/17 10:24:22;;;;;;;;;;;;;;;;;;5123188;28;19932;-77
2022/07/17 10:26:49;;;;;;;;;;;;;;;;;;5122458;28;19923;-75
2022/07/17 10:29:31;;;;;;;;;;;;;;;;;;5127666;28;20294;-76
2022/07/17 10:31:58;;;;;;;;;;;;;;;;;;5130151;28;19924;-77
2022/07/17 10:34:37;;;;;;;;;;;;;;;;;;5131156;28;19946;-78
2022/07/17 10:37:14;;;;;;;;;;;;;;;;;;5131322;28;19930;-77
2022/07/17 10:39:41;;;;;;;;;;;;;;;;;;5128977;28;20240;-78
2022/07/17 10:42:07;;;;;;;;;;;;;;;;;;5123435;28;20318;-78
2022/07/17 10:44:35;;;;;;;;;;;;;;;;;;5118089;28;19978;-77
2022/07/17 10:47:01;;;;;;;;;;;;;;;;;;5117355;28;21636;-77
2022/07/17 10:49:28;;;;;;;;;;;;;;;;;;5117762;28;19924;-78
2022/07/17 10:51:55;;;;;;;;;;;;;;;;;;5117912;28;19967;-78
2022/07/17 10:54:21;;;;;;;;;;;;;;;;;;5118505;28;19987;-78
2022/07/17 10:56:49;;;;;;;;;;;;;;;;;;5117483;28;19923;-78
2022/07/17 10:59:15;;;;;;;;;;;;;;;;;;5117017;28;20546;-78
2022/07/17 11:01:43;;;;;;;;;;;;;;;;;;5097004;28;19924;-78
2022/07/17 11:04:10;;;;;;;;;;;;;;;;;;5096997;28;19978;-78
2022/07/17 11:06:37;;;;;;;;;;;;;;;;;;5107210;28;20430;-79
2022/07/17 11:09:04;;;;;;;;;;;;;;;;;;5118949;28;19954;-79
2022/07/17 11:11:38;;;;;;;;;;;;;;;;;;5119084;28;19969;-77
2022/07/17 11:14:08;;;;;;;;;;;;;;;;;;5118613;28;19938;-79
2022/07/17 11:16:35;;;;;;;;;;;;;;;;;;5112714;28;19923;-78
2022/07/17 11:19:04;;;;;;;;;;;;;;;;;;5111358;28;21575;-77
2022/07/17 11:21:32;;;;;;;;;;;;;;;;;;5112292;28;20022;-78
2022/07/17 11:23:58;;;;;;;;;;;;;;;;;;5115624;28;19934;-77
2022/07/17 11:26:25;;;;;;;;;;;;;;;;;;5122318;28;20042;-78
2022/07/17 11:28:52;;;;;;;;;;;;;;;;;;5116112;28;20019;-78
2022/07/17 11:31:19;;;;;;;;;;;;;;;;;;5111600;28;19930;-77
2022/07/17 11:33:50;;;;;;;;;;;;;;;;;;5112241;28;19970;-78
2022/07/17 11:36:25;;;;;;;;;;;;;;;;;;5118802;28;19924;-78
2022/07/17 11:38:53;;;;;;;;;;;;;;;;;;5112154;28;20640;-78
2022/07/17 11:41:20;;;;;;;;;;;;;;;;;;5114440;28;19953;-77
2022/07/17 11:43:47;;;;;;;;;;;;;;;;;;5111528;28;20381;-76
2022/07/17 11:46:14;;;;;;;;;;;;;;;;;;5111523;28;19923;-78
2022/07/17 11:48:41;;;;;;;;;;;;;;;;;;5109959;28;19924;-77
2022/07/17 11:51:08;;;;;;;;;;;;;;;;;;5114200;28;20424;-78
2022/07/17 11:53:38;;;;;;;;;;;;;;;;;;5113469;28;20001;-77
2022/07/17 11:56:07;;;;;;;;;;;;;;;;;;5115286;28;19939;-76
2022/07/17 11:58:44;;;;;;;;;;;;;;;;;;5120842;28;19999;-76
2022/07/17 12:01:14;;;;;;;;;;;;;;;;;;5113344;28;20318;-77
2022/07/17 12:03:41;;;;;;;;;;;;;;;;;;5121240;28;20374;-76
2022/07/17 12:06:08;;;;;;;;;;;;;;;;;;5112519;28;19987;-78
2022/07/17 12:08:36;;;;;;;;;;;;;;;;;;5111535;28;20023;-78
2022/07/17 12:11:04;;;;;;;;;;;;;;;;;;5121628;28;19973;-78
2022/07/17 12:13:40;;;;;;;;;;;;;;;;;;5111261;28;20362;-79
2022/07/17 12:16:19;;;;;;;;;;;;;;;;;;5111217;28;20374;-78
2022/07/17 12:18:55;;;;;;;;;;;;;;;;;;5117812;28;19967;-77
2022/07/17 12:21:21;;;;;;;;;;;;;;;;;;5127288;28;19981;-77
2022/07/17 12:23:57;;;;;;;;;;;;;;;;;;5126415;28;19924;-79
2022/07/17 12:26:23;;;;;;;;;;;;;;;;;;5123251;28;19924;-77
2022/07/17 12:28:50;;;;;;;;;;;;;;;;;;5123859;28;19950;-76
2022/07/17 12:31:16;;;;;;;;;;;;;;;;;;5124222;28;20485;-78
2022/07/17 12:33:43;;;;;;;;;;;;;;;;;;5121330;28;19949;-79
2022/07/17 12:36:09;;;;;;;;;;;;;;;;;;5114286;28;19962;-77
2022/07/17 12:38:36;;;;;;;;;;;;;;;;;;5115209;28;19931;-78
2022/07/17 12:41:04;;;;;;;;;;;;;;;;;;5113749;28;20394;-78
2022/07/17 12:43:31;;;;;;;;;;;;;;;;;;5112173;28;19932;-79
2022/07/17 12:45:57;;;;;;;;;;;;;;;;;;5113060;28;19928;-78
2022/07/17 12:48:24;;;;;;;;;;;;;;;;;;5111582;28;20010;-79
2022/07/17 12:50:50;;;;;;;;;;;;;;;;;;5115564;28;19966;-77
2022/07/17 12:53:17;;;;;;;;;;;;;;;;;;5114472;28;19993;-78
2022/07/17 12:55:43;;;;;;;;;;;;;;;;;;5115679;28;19971;-77
2022/07/17 12:58:11;;;;;;;;;;;;;;;;;;5114279;28;19952;-77
2022/07/17 13:00:37;;;;;;;;;;;;;;;;;;5103459;28;20015;-78
2022/07/17 13:03:04;;;;;;;;;;;;;;;;;;5099845;28;19963;-79
2022/07/17 13:05:31;;;;;;;;;;;;;;;;;;5096092;28;19924;-78
2022/07/17 13:10:26;;;;;;;;;;;;;;;;;;5137256;22;20019;-61
2022/07/17 13:12:52;;;;;;;;;;;;;;;;;;5114084;28;19975;-62
2022/07/17 13:15:20;;;;;;;;;;;;;;;;;;5114224;28;20329;-63
2022/07/17 13:17:47;;;;;;;;;;;;;;;;;;5113707;28;20177;-63
2022/07/17 13:20:14;;;;;;;;;;;;;;;;;;5114009;28;19924;-62
2022/07/17 13:22:40;;;;;;;;;;;;;;;;;;5096247;28;20044;-62
2022/07/17 13:25:07;;;;;;;;;;;;;;;;;;5093807;28;19985;-62
2022/07/17 13:27:34;;;;;;;;;;;;;;;;;;5093532;28;19977;-63
2022/07/17 13:30:00;;;;;;;;;;;;;;;;;;5093413;28;19928;-63
2022/07/17 13:32:28;;;;;;;;;;;;;;;;;;5093587;28;19924;-62
2022/07/17 13:34:55;;;;;;;;;;;;;;;;;;5093715;28;19924;-62
2022/07/17 13:37:21;;;;;;;;;;;;;;;;;;5093046;28;19932;-62
2022/07/17 13:39:48;;;;;;;;;;;;;;;;;;5093218;28;19924;-62
2022/07/17 13:42:15;;;;;;;;;;;;;;;;;;5093180;28;19932;-61
2022/07/17 13:44:42;;;;;;;;;;;;;;;;;;5093184;28;20353;-62
2022/07/17 13:47:09;;;;;;;;;;;;;;;;;;5092648;28;20365;-62
2022/07/17 13:49:37;;;;;;;;;;;;;;;;;;5093059;28;19931;-62
2022/07/17 13:52:03;;;;;;;;;;;;;;;;;;5092740;28;19924;-62
2022/07/17 13:54:30;;;;;;;;;;;;;;;;;;5093004;28;19924;-62
2022/07/17 13:56:57;;;;;;;;;;;;;;;;;;5104976;28;19928;-62
2022/07/17 13:59:24;;;;;;;;;;;;;;;;;;5099019;28;19924;-64
2022/07/17 14:01:50;;;;;;;;;;;;;;;;;;5099474;28;20450;-62
2022/07/17 14:04:17;;;;;;;;;;;;;;;;;;5100420;28;20343;-62
2022/07/17 14:06:45;;;;;;;;;;;;;;;;;;5092258;28;19931;-61
2022/07/17 14:09:12;;;;;;;;;;;;;;;;;;5092792;28;20015;-62
2022/07/17 14:11:38;;;;;;;;;;;;;;;;;;5092221;28;19977;-62
2022/07/17 14:14:05;;;;;;;;;;;;;;;;;;5092557;28;19924;-61
2022/07/17 14:16:32;;;;;;;;;;;;;;;;;;5092116;28;19924;-61
2022/07/17 14:19:01;;;;;;;;;;;;;;;;;;5092362;28;19927;-63
2022/07/17 14:21:29;;;;;;;;;;;;;;;;;;5092420;28;20377;-62
2022/07/17 14:23:57;;;;;;;;;;;;;;;;;;5092437;28;19924;-62
2022/07/17 14:26:24;;;;;;;;;;;;;;;;;;5092517;28;20320;-62
2022/07/17 14:28:50;;;;;;;;;;;;;;;;;;5092199;28;19925;-62
2022/07/17 14:31:17;;;;;;;;;;;;;;;;;;5092426;28;20346;-63
2022/07/17 14:33:43;;;;;;;;;;;;;;;;;;5104403;28;19924;-63
2022/07/17 14:36:10;;;;;;;;;;;;;;;;;;5112297;28;20388;-62
2022/07/17 14:38:37;;;;;;;;;;;;;;;;;;5112588;28;19923;-62
2022/07/17 14:41:05;;;;;;;;;;;;;;;;;;5112051;28;19924;-62
2022/07/17 14:43:32;;;;;;;;;;;;;;;;;;5113212;28;19924;-62
2022/07/17 14:45:59;;;;;;;;;;;;;;;;;;5112387;28;20399;-62
2022/07/17 14:48:25;;;;;;;;;;;;;;;;;;5112736;28;20384;-62
2022/07/17 14:50:52;;;;;;;;;;;;;;;;;;5108932;28;20012;-63
2022/07/17 14:53:19;;;;;;;;;;;;;;;;;;5107380;28;19988;-63
2022/07/17 14:55:45;;;;;;;;;;;;;;;;;;5091395;28;19928;-62
2022/07/17 14:58:13;;;;;;;;;;;;;;;;;;5096708;28;19928;-62
2022/07/17 15:00:40;;;;;;;;;;;;;;;;;;5091686;28;20392;-62
2022/07/17 15:03:06;;;;;;;;;;;;;;;;;;5091228;28;19924;-64
2022/07/17 15:05:33;;;;;;;;;;;;;;;;;;5091136;28;19931;-62
2022/07/17 15:07:59;;;;;;;;;;;;;;;;;;5091146;28;19935;-61
2022/07/17 15:10:26;;;;;;;;;;;;;;;;;;5091091;28;19924;-63
2022/07/17 15:12:52;;;;;;;;;;;;;;;;;;5090909;28;19931;-62
2022/07/17 15:15:20;;;;;;;;;;;;;;;;;;5091175;28;19935;-63
2022/07/17 15:17:47;;;;;;;;;;;;;;;;;;5108073;28;19932;-62
2022/07/17 15:20:14;;;;;;;;;;;;;;;;;;5111459;28;19924;-62
2022/07/17 15:22:40;;;;;;;;;;;;;;;;;;5111426;28;19936;-62
2022/07/17 15:25:07;;;;;;;;;;;;;;;;;;5111316;28;19931;-62
2022/07/17 15:27:34;;;;;;;;;;;;;;;;;;5111108;28;19923;-63
2022/07/17 15:30:01;;;;;;;;;;;;;;;;;;5099202;28;19924;-61
2022/07/17 15:32:29;;;;;;;;;;;;;;;;;;5110457;28;19935;-62
2022/07/17 15:34:55;;;;;;;;;;;;;;;;;;5105074;28;20470;-61
2022/07/17 15:37:23;;;;;;;;;;;;;;;;;;5107433;28;20381;-62
2022/07/17 15:39:50;;;;;;;;;;;;;;;;;;5091052;28;19924;-62
2022/07/17 15:42:17;;;;;;;;;;;;;;;;;;5106265;28;19923;-63
2022/07/17 15:44:43;;;;;;;;;;;;;;;;;;5111290;28;20427;-62
2022/07/17 15:47:10;;;;;;;;;;;;;;;;;;5110727;28;19927;-63
2022/07/17 15:49:38;;;;;;;;;;;;;;;;;;5111082;28;19982;-62
2022/07/17 15:52:05;;;;;;;;;;;;;;;;;;5111010;28;19924;-63
2022/07/17 15:54:32;;;;;;;;;;;;;;;;;;5111238;28;19924;-63
2022/07/17 15:56:58;;;;;;;;;;;;;;;;;;5110988;28;19928;-62
2022/07/17 15:59:25;;;;;;;;;;;;;;;;;;5111107;28;19951;-61
2022/07/17 16:01:52;;;;;;;;;;;;;;;;;;5111010;28;20392;-62
2022/07/17 16:04:18;;;;;;;;;;;;;;;;;;5110917;28;20015;-63
2022/07/17 16:06:46;;;;;;;;;;;;;;;;;;5110907;28;20372;-63
2022/07/17 16:09:13;;;;;;;;;;;;;;;;;;5110719;28;19924;-62
2022/07/17 16:11:40;;;;;;;;;;;;;;;;;;5110945;28;20457;-61
2022/07/17 16:14:06;;;;;;;;;;;;;;;;;;5111062;28;19969;-64
2022/07/17 16:16:33;;;;;;;;;;;;;;;;;;5111227;28;19930;-62
2022/07/17 16:19:00;;;;;;;;;;;;;;;;;;5110694;28;19928;-62
2022/07/17 16:21:27;;;;;;;;;;;;;;;;;;5110338;28;19984;-62
2022/07/17 16:23:55;;;;;;;;;;;;;;;;;;5111957;28;19930;-62
2022/07/17 16:26:21;;;;;;;;;;;;;;;;;;5114408;28;19931;-63
2022/07/17 16:28:48;;;;;;;;;;;;;;;;;;5114905;28;19923;-60
2022/07/17 16:31:15;;;;;;;;;;;;;;;;;;5114676;28;19930;-63
2022/07/17 16:33:41;;;;;;;;;;;;;;;;;;5114617;28;19934;-63
2022/07/17 16:36:08;;;;;;;;;;;;;;;;;;5114496;28;20357;-61
2022/07/17 16:38:35;;;;;;;;;;;;;;;;;;5114744;28;19924;-62
2022/07/17 16:41:03;;;;;;;;;;;;;;;;;;5114892;28;19931;-63
2022/07/17 16:43:31;;;;;;;;;;;;;;;;;;5114890;28;20069;-63
2022/07/17 16:45:58;;;;;;;;;;;;;;;;;;5114487;28;19923;-62
2022/07/17 16:48:25;;;;;;;;;;;;;;;;;;5114726;28;19923;-61
2022/07/17 16:50:51;;;;;;;;;;;;;;;;;;5114220;28;19924;-62